createdAt,value
2023-05-02T06:36:02.953Z,11.71
2023-05-02T06:37:06.435Z,11.75
2023-05-02T06:38:08.945Z,11.75
2023-05-02T06:39:12.295Z,11.81
2023-05-02T06:40:14.866Z,11.84
2023-05-02T06:41:18.393Z,11.86
2023-05-02T06:42:21.500Z,11.88
2023-05-02T06:43:23.906Z,11.90
2023-05-02T06:44:26.214Z,11.92
2023-05-02T06:45:28.477Z,11.95
2023-05-02T06:46:30.978Z,12.00
2023-05-02T06:47:33.438Z,12.05
2023-05-02T06:48:35.849Z,12.11
2023-05-02T06:49:38.701Z,12.15
2023-05-02T06:50:42.596Z,12.20
2023-05-02T06:51:45.646Z,12.23
2023-05-02T06:52:47.940Z,12.28
2023-05-02T06:53:50.383Z,12.34
2023-05-02T06:54:53.191Z,12.38
2023-05-02T06:55:55.531Z,12.43
2023-05-02T06:56:58.706Z,12.47
2023-05-02T06:58:01.165Z,12.50
2023-05-02T06:59:03.784Z,12.54
2023-05-02T07:00:08.028Z,12.56
2023-05-02T07:01:10.374Z,12.60
2023-05-02T07:02:12.824Z,12.63
2023-05-02T07:03:15.416Z,12.66
2023-05-02T07:04:17.819Z,12.69
2023-05-02T07:05:20.246Z,12.73
2023-05-02T07:06:23.649Z,12.79
2023-05-02T07:07:26.161Z,12.84
2023-05-02T07:08:28.953Z,12.86
2023-05-02T07:09:31.264Z,12.90
2023-05-02T07:10:33.685Z,12.94
2023-05-02T07:11:36.022Z,12.97
2023-05-02T07:12:39.526Z,13.02
2023-05-02T07:13:42.896Z,13.06
2023-05-02T07:14:45.284Z,13.11
2023-05-02T07:15:48.168Z,13.15
2023-05-02T07:16:51.262Z,13.18
2023-05-02T07:17:54.387Z,13.21
2023-05-02T07:18:56.974Z,13.22
2023-05-02T07:19:59.371Z,13.27
2023-05-02T07:21:01.870Z,13.32
2023-05-02T07:22:05.394Z,13.36
2023-05-02T07:23:09.379Z,13.40
2023-05-02T07:24:14.391Z,13.47
2023-05-02T07:25:16.733Z,13.51
2023-05-02T07:26:19.162Z,13.55
2023-05-02T07:27:21.472Z,13.56
2023-05-02T07:28:24.386Z,13.58
2023-05-02T07:29:27.355Z,13.60
2023-05-02T07:30:30.022Z,13.66
2023-05-02T07:31:32.389Z,13.69
2023-05-02T07:32:34.871Z,13.73
2023-05-02T07:33:37.918Z,13.77
2023-05-02T07:34:40.666Z,13.78
2023-05-02T07:35:43.663Z,13.80
2023-05-02T07:36:46.218Z,13.84
2023-05-02T07:37:48.496Z,13.85
2023-05-02T07:38:50.883Z,13.89
2023-05-02T07:39:53.328Z,13.93
2023-05-02T07:40:58.644Z,13.97
2023-05-02T07:42:00.933Z,14.01
2023-05-02T07:43:04.323Z,14.04
2023-05-02T07:44:06.688Z,14.07
2023-05-02T07:45:09.897Z,14.07
2023-05-02T07:46:12.515Z,14.09
2023-05-02T07:47:15.270Z,14.10
2023-05-02T07:48:17.694Z,14.13
2023-05-02T07:49:20.180Z,14.13
2023-05-02T07:50:23.323Z,14.12
2023-05-02T07:51:25.698Z,14.16
2023-05-02T07:52:30.132Z,14.16
2023-05-02T07:53:32.481Z,14.20
2023-05-02T07:54:34.769Z,14.23
2023-05-02T07:55:37.097Z,14.25
2023-05-02T07:56:39.656Z,14.29
2023-05-02T07:57:41.991Z,14.32
2023-05-02T07:58:44.361Z,14.35
2023-05-02T07:59:47.952Z,14.41
2023-05-02T08:00:50.795Z,14.45
2023-05-02T08:01:53.161Z,14.49
2023-05-02T08:02:56.616Z,14.52
2023-05-02T08:03:59.403Z,14.56
2023-05-02T08:05:02.884Z,14.57
2023-05-02T08:06:05.483Z,14.63
2023-05-02T08:07:07.885Z,14.65
2023-05-02T08:08:10.215Z,14.66
2023-05-02T08:09:13.889Z,14.68
2023-05-02T08:10:16.351Z,14.68
2023-05-02T08:11:18.752Z,14.71
2023-05-02T08:12:21.097Z,14.72
2023-05-02T08:13:23.353Z,14.73
2023-05-02T08:14:25.673Z,14.77
2023-05-02T08:15:28.885Z,14.80
2023-05-02T08:16:31.508Z,14.86
2023-05-02T08:17:33.990Z,14.94
2023-05-02T08:18:37.138Z,14.99
2023-05-02T08:19:39.527Z,15.00
2023-05-02T08:20:43.605Z,15.04
2023-05-02T08:21:46.468Z,15.08
2023-05-02T08:22:48.750Z,15.11
2023-05-02T08:23:51.460Z,15.15
2023-05-02T08:24:55.136Z,15.14
2023-05-02T08:25:58.215Z,15.16
2023-05-02T08:27:00.652Z,15.17
2023-05-02T08:28:03.193Z,15.11
2023-05-02T08:29:07.747Z,15.15
2023-05-02T08:30:12.415Z,15.17
2023-05-02T08:31:14.870Z,15.19
2023-05-02T08:32:17.815Z,15.21
2023-05-02T08:33:20.340Z,15.24
2023-05-02T08:34:22.599Z,15.28
2023-05-02T08:35:25.149Z,15.28
2023-05-02T08:36:27.365Z,15.32
2023-05-02T08:37:29.824Z,15.35
2023-05-02T08:38:32.233Z,15.36
2023-05-02T08:39:35.030Z,15.39
2023-05-02T08:40:42.444Z,15.42
2023-05-02T08:41:43.140Z,15.45
2023-05-02T08:42:45.572Z,15.46
2023-05-02T08:43:48.077Z,15.49
2023-05-02T08:44:51.208Z,15.51
2023-05-02T08:45:55.882Z,15.54
2023-05-02T08:47:00.308Z,15.51
2023-05-02T08:48:08.125Z,15.53
2023-05-02T08:49:10.906Z,15.54
2023-05-02T08:50:16.570Z,15.53
2023-05-02T08:52:22.705Z,15.54
2023-05-02T08:53:26.356Z,15.57
2023-05-02T08:54:29.903Z,15.55
2023-05-02T08:55:34.457Z,15.54
2023-05-02T08:57:47.391Z,15.64
2023-05-02T08:58:49.713Z,15.57
2023-05-02T08:59:52.384Z,15.58
2023-05-02T09:00:56.499Z,15.61
2023-05-02T09:02:02.445Z,15.63
2023-05-02T09:03:27.218Z,15.65
2023-05-02T09:04:31.841Z,15.67
2023-05-02T09:05:41.655Z,15.73
2023-05-02T09:06:44.121Z,15.74
2023-05-02T09:07:48.597Z,15.80
2023-05-02T09:08:52.254Z,15.83
2023-05-02T09:09:55.187Z,15.87
2023-05-02T09:10:57.868Z,15.92
2023-05-02T09:12:00.238Z,15.96
2023-05-02T09:13:28.297Z,15.99
2023-05-02T09:14:30.767Z,16.02
2023-05-02T09:15:33.179Z,16.06
2023-05-02T09:16:38.288Z,16.08
2023-05-02T09:17:45.730Z,16.11
2023-05-02T09:18:50.996Z,16.15
2023-05-02T09:20:03.388Z,16.21
2023-05-02T09:21:10.582Z,16.23
2023-05-02T09:22:17.059Z,16.29
2023-05-02T09:23:19.349Z,16.32
2023-05-02T09:24:22.241Z,16.34
2023-05-02T09:25:25.047Z,16.37
2023-05-02T09:26:31.623Z,16.35
2023-05-02T09:27:54.754Z,16.34
2023-05-02T09:28:59.174Z,16.36
2023-05-02T09:30:21.162Z,16.35
2023-05-02T09:31:49.505Z,16.37
2023-05-02T09:32:47.240Z,16.38
2023-05-02T09:33:49.550Z,16.42
2023-05-02T09:36:19.679Z,16.70
2023-05-02T09:38:48.299Z,16.82
2023-05-02T09:39:54.488Z,16.76
2023-05-02T09:40:56.971Z,16.79
2023-05-02T09:41:59.464Z,16.80
2023-05-02T09:43:16.002Z,16.81
2023-05-02T09:44:20.413Z,16.82
2023-05-02T09:45:24.851Z,16.83
2023-05-02T09:46:31.087Z,16.82
2023-05-02T09:47:33.586Z,16.83
2023-05-02T09:48:56.301Z,16.84
2023-05-02T09:49:59.149Z,16.83
2023-05-02T09:51:01.729Z,16.87
2023-05-02T09:52:16.864Z,16.90
2023-05-02T09:53:19.516Z,16.93
2023-05-02T09:55:44.968Z,17.08
2023-05-02T09:56:57.532Z,17.00
2023-05-02T09:58:00.679Z,17.02
2023-05-02T10:00:25.024Z,17.21
2023-05-02T10:01:27.540Z,17.12
2023-05-02T10:02:31.538Z,17.11
2023-05-02T10:03:37.427Z,17.11
2023-05-02T10:04:41.631Z,17.12
2023-05-02T10:05:47.433Z,17.14
2023-05-02T10:06:53.016Z,17.15
2023-05-02T10:07:55.971Z,17.15
2023-05-02T10:08:58.814Z,17.17
2023-05-02T10:10:02.237Z,17.18
2023-05-02T10:11:07.907Z,17.21
2023-05-02T10:12:13.890Z,17.23
2023-05-02T10:13:18.585Z,17.22
2023-05-02T10:14:23.768Z,17.19
2023-05-02T10:15:28.651Z,17.22
2023-05-02T10:16:35.016Z,17.23
2023-05-02T10:17:41.278Z,17.25
2023-05-02T10:18:47.262Z,17.28
2023-05-02T10:19:59.899Z,17.32
2023-05-02T10:22:19.570Z,17.48
2023-05-02T10:23:27.652Z,17.44
2023-05-02T10:24:32.243Z,17.50
2023-05-02T10:25:35.022Z,17.52
2023-05-02T10:26:38.399Z,17.56
2023-05-02T10:27:41.250Z,17.56
2023-05-02T10:28:44.297Z,17.59
2023-05-02T10:29:47.068Z,17.61
2023-05-02T10:30:50.166Z,17.61
2023-05-02T10:31:53.792Z,17.65
2023-05-02T10:32:59.722Z,17.63
2023-05-02T10:34:04.584Z,17.66
2023-05-02T10:35:07.785Z,17.71
2023-05-02T10:36:11.657Z,17.64
2023-05-02T10:37:16.489Z,17.66
2023-05-02T10:38:22.551Z,17.67
2023-05-02T10:39:27.623Z,17.68
2023-05-02T10:40:30.982Z,17.69
2023-05-02T10:41:34.936Z,17.72
2023-05-02T10:42:40.695Z,17.76
2023-05-02T10:43:46.649Z,17.79
2023-05-02T10:44:50.520Z,17.79
2023-05-02T10:45:53.718Z,17.84
2023-05-02T10:46:57.474Z,17.87
2023-05-02T10:48:14.718Z,17.90
2023-05-02T10:49:17.291Z,17.95
2023-05-02T10:50:28.151Z,17.97
2023-05-02T10:51:32.674Z,17.99
2023-05-02T10:52:38.502Z,17.97
2023-05-02T10:53:41.043Z,17.95
2023-05-02T10:54:43.515Z,17.95
2023-05-02T10:55:48.328Z,17.93
2023-05-02T10:57:03.652Z,17.95
2023-05-02T10:58:10.315Z,17.97
2023-05-02T11:00:39.200Z,18.18
2023-05-02T11:01:41.648Z,18.14
2023-05-02T11:02:48.658Z,18.21
2023-05-02T11:03:56.746Z,18.26
2023-05-02T11:05:07.147Z,18.29
2023-05-02T11:06:09.971Z,18.35
2023-05-02T11:07:18.659Z,18.35
2023-05-02T11:08:24.494Z,18.38
2023-05-02T11:09:31.035Z,18.39
2023-05-02T11:10:35.112Z,18.42
2023-05-02T11:11:44.714Z,18.43
2023-05-02T11:12:54.770Z,18.48
2023-05-02T11:13:57.324Z,18.51
2023-05-02T11:15:00.658Z,18.51
2023-05-02T11:16:04.203Z,18.53
2023-05-02T11:17:10.333Z,18.52
2023-05-02T11:18:13.686Z,18.53
2023-05-02T11:19:16.085Z,18.55
2023-05-02T11:20:18.926Z,18.53
2023-05-02T11:21:30.350Z,18.50
2023-05-02T11:22:33.945Z,18.49
2023-05-02T11:23:36.379Z,18.50
2023-05-02T11:24:43.634Z,18.48
2023-05-02T11:25:47.770Z,18.48
2023-05-02T11:26:51.001Z,18.47
2023-05-02T11:27:54.019Z,18.43
2023-05-02T11:28:57.496Z,18.36
2023-05-02T11:31:31.674Z,18.41
2023-05-02T11:32:49.895Z,18.31
2023-05-02T11:34:00.117Z,18.29
2023-05-02T11:35:03.166Z,18.31
2023-05-02T11:36:05.936Z,18.32
2023-05-02T11:37:13.060Z,18.33
2023-05-02T11:38:16.837Z,18.36
2023-05-02T11:39:21.464Z,18.37
2023-05-02T11:40:25.680Z,18.42
2023-05-02T11:42:51.386Z,18.59
2023-05-02T11:43:57.349Z,18.49
2023-05-02T11:45:01.490Z,18.53
2023-05-02T11:46:06.239Z,18.54
2023-05-02T11:47:09.286Z,18.57
2023-05-02T11:48:15.515Z,18.62
2023-05-02T11:49:17.974Z,18.67
2023-05-02T11:50:20.352Z,18.73
2023-05-02T11:51:24.051Z,18.76
2023-05-02T11:52:26.765Z,18.76
2023-05-02T11:53:29.644Z,18.74
2023-05-02T11:54:32.312Z,18.73
2023-05-02T11:55:36.192Z,18.70
2023-05-02T11:56:39.997Z,18.66
2023-05-02T11:57:42.871Z,18.67
2023-05-02T11:58:45.299Z,18.69
2023-05-02T11:59:56.448Z,18.68
2023-05-02T12:01:02.066Z,18.68
2023-05-02T12:02:04.432Z,18.71
2023-05-02T12:03:08.060Z,18.73
2023-05-02T12:04:10.522Z,18.74
2023-05-02T12:05:14.502Z,18.77
2023-05-02T12:06:18.995Z,18.77
2023-05-02T12:07:25.559Z,18.78
2023-05-02T12:08:28.549Z,18.80
2023-05-02T12:09:30.939Z,18.81
2023-05-02T12:10:37.533Z,18.83
2023-05-02T12:11:40.995Z,18.86
2023-05-02T12:12:44.571Z,18.88
2023-05-02T12:13:48.984Z,18.90
2023-05-02T12:14:51.966Z,18.90
2023-05-02T12:15:54.959Z,18.91
2023-05-02T12:16:58.682Z,18.92
2023-05-02T12:18:01.791Z,18.93
2023-05-02T12:19:04.572Z,18.94
2023-05-02T12:20:09.355Z,18.94
2023-05-02T12:21:12.511Z,18.92
2023-05-02T12:22:15.673Z,18.86
2023-05-02T12:24:30.420Z,18.97
2023-05-02T12:25:38.289Z,18.86
2023-05-02T12:26:41.162Z,18.86
2023-05-02T12:28:00.862Z,18.89
2023-05-02T12:29:03.935Z,18.94
2023-05-02T12:30:07.829Z,18.97
2023-05-02T12:31:10.543Z,18.99
2023-05-02T12:32:14.866Z,19.01
2023-05-02T12:33:17.719Z,19.04
2023-05-02T12:34:33.329Z,19.07
2023-05-02T12:35:35.639Z,19.09
2023-05-02T12:37:50.522Z,19.27
2023-05-02T12:38:54.887Z,19.16
2023-05-02T12:39:58.291Z,19.15
2023-05-02T12:41:00.986Z,19.19
2023-05-02T12:42:13.199Z,19.21
2023-05-02T12:43:19.249Z,19.20
2023-05-02T12:44:39.541Z,19.25
2023-05-02T12:45:42.358Z,19.29
2023-05-02T12:48:20.175Z,19.40
2023-05-02T12:49:25.425Z,19.32
2023-05-02T12:50:37.985Z,19.34
2023-05-02T12:51:41.335Z,19.35
2023-05-02T12:52:51.593Z,19.35
2023-05-02T12:53:53.899Z,19.34
2023-05-02T12:54:59.845Z,19.34
2023-05-02T12:56:03.206Z,19.34
2023-05-02T12:57:05.694Z,19.36
2023-05-02T12:58:10.171Z,19.34
2023-05-02T13:00:42.868Z,19.41
2023-05-02T13:01:46.942Z,19.33
2023-05-02T13:02:49.233Z,19.37
2023-05-02T13:03:52.192Z,19.43
2023-05-02T13:04:56.636Z,19.48
2023-05-02T13:05:59.036Z,19.52
2023-05-02T13:07:01.911Z,19.52
2023-05-02T13:08:04.691Z,19.56
2023-05-02T13:09:06.905Z,19.56
2023-05-02T13:10:10.401Z,19.57
2023-05-02T13:11:13.130Z,19.58
2023-05-02T13:12:15.555Z,19.56
2023-05-02T13:13:18.392Z,19.57
2023-05-02T13:14:20.725Z,19.56
2023-05-02T13:15:23.536Z,19.55
2023-05-02T13:16:26.165Z,19.51
2023-05-02T13:17:29.847Z,19.47
2023-05-02T13:18:32.380Z,19.41
2023-05-02T13:19:35.121Z,19.36
2023-05-02T13:20:38.032Z,19.30
2023-05-02T13:21:40.465Z,19.29
2023-05-02T13:22:42.806Z,19.28
2023-05-02T13:23:47.411Z,19.26
2023-05-02T13:24:49.682Z,19.30
2023-05-02T13:25:52.029Z,19.35
2023-05-02T13:26:54.332Z,19.39
2023-05-02T13:27:57.665Z,19.40
2023-05-02T13:28:59.927Z,19.41
2023-05-02T13:30:04.215Z,19.44
2023-05-02T13:31:07.720Z,19.46
2023-05-02T13:32:11.251Z,19.47
2023-05-02T13:33:13.983Z,19.47
2023-05-02T13:34:16.543Z,19.46
2023-05-02T13:35:18.874Z,19.46
2023-05-02T13:36:21.281Z,19.49
2023-05-02T13:37:24.061Z,19.54
2023-05-02T13:38:27.488Z,19.57
2023-05-02T13:39:29.731Z,19.56
2023-05-02T13:40:32.352Z,19.58
2023-05-02T13:41:34.898Z,19.56
2023-05-02T13:42:37.222Z,19.54
2023-05-02T13:43:39.742Z,19.54
2023-05-02T13:44:41.960Z,19.53
2023-05-02T13:45:44.320Z,19.46
2023-05-02T13:46:48.035Z,19.42
2023-05-02T13:47:50.457Z,19.41
2023-05-02T13:48:52.640Z,19.38
2023-05-02T13:49:55.379Z,19.40
2023-05-02T13:50:57.828Z,19.40
2023-05-02T13:52:00.559Z,19.44
2023-05-02T13:53:03.369Z,19.47
2023-05-02T13:54:05.789Z,19.49
2023-05-02T13:55:08.662Z,19.54
2023-05-02T13:56:11.785Z,19.57
2023-05-02T13:57:13.994Z,19.54
2023-05-02T13:58:17.055Z,19.55
2023-05-02T13:59:19.449Z,19.55
2023-05-02T14:00:21.625Z,19.54
2023-05-02T14:01:24.694Z,19.56
2023-05-02T14:02:27.128Z,19.58
2023-05-02T14:03:29.576Z,19.56
2023-05-02T14:04:32.416Z,19.51
2023-05-02T14:05:34.622Z,19.50
2023-05-02T14:06:38.242Z,19.50
2023-05-02T14:07:41.018Z,19.50
2023-05-02T14:08:43.331Z,19.51
2023-05-02T14:09:45.554Z,19.53
2023-05-02T14:10:48.886Z,19.52
2023-05-02T14:11:52.228Z,19.52
2023-05-02T14:12:54.652Z,19.52
2023-05-02T14:13:57.384Z,19.53
2023-05-02T14:15:00.293Z,19.55
2023-05-02T14:16:02.943Z,19.55
2023-05-02T14:17:05.300Z,19.58
2023-05-02T14:18:07.643Z,19.57
2023-05-02T14:19:09.922Z,19.56
2023-05-02T14:20:12.557Z,19.55
2023-05-02T14:21:15.166Z,19.55
2023-05-02T14:22:17.394Z,19.55
2023-05-02T14:23:19.595Z,19.52
2023-05-02T14:24:21.869Z,19.49
2023-05-02T14:25:24.112Z,19.51
2023-05-02T14:26:26.385Z,19.52
2023-05-02T14:27:28.679Z,19.56
2023-05-02T14:28:30.881Z,19.55
2023-05-02T14:29:35.827Z,19.55
2023-05-02T14:30:46.333Z,19.56
2023-05-02T14:31:50.627Z,19.57
2023-05-02T14:32:55.687Z,19.58
2023-05-02T14:34:01.450Z,19.57
2023-05-02T14:35:07.833Z,19.56
2023-05-02T14:36:12.197Z,19.54
2023-05-02T14:37:16.090Z,19.55
2023-05-02T14:38:19.382Z,19.56
2023-05-02T14:39:22.044Z,19.56
2023-05-02T14:40:27.063Z,19.55
2023-05-02T14:41:30.813Z,19.56
2023-05-02T14:42:37.702Z,19.56
2023-05-02T14:43:40.435Z,19.59
2023-05-02T14:44:45.704Z,19.56
2023-05-02T14:45:53.132Z,19.55
2023-05-02T14:46:58.061Z,19.57
2023-05-02T14:48:03.357Z,19.57
2023-05-02T14:49:11.208Z,19.58
2023-05-02T14:50:17.289Z,19.54
2023-05-02T14:51:19.811Z,19.53
2023-05-02T14:52:23.414Z,19.53
2023-05-02T14:53:27.395Z,19.51
2023-05-02T14:54:31.414Z,19.49
2023-05-02T14:55:36.710Z,19.49
2023-05-02T14:56:41.252Z,19.49
2023-05-02T14:57:47.071Z,19.50
2023-05-02T14:58:54.146Z,19.52
2023-05-02T15:00:01.912Z,19.53
2023-05-02T15:01:09.311Z,19.57
2023-05-02T15:02:12.293Z,19.56
2023-05-02T15:03:19.412Z,19.58
2023-05-02T15:04:23.853Z,19.59
2023-05-02T15:05:28.310Z,19.59
2023-05-02T15:06:34.980Z,19.59
2023-05-02T15:07:40.402Z,19.59
2023-05-02T15:08:42.716Z,19.57
2023-05-02T15:09:51.191Z,19.57
2023-05-02T15:10:56.408Z,19.56
2023-05-02T15:12:02.303Z,19.55
2023-05-02T15:13:09.572Z,19.53
2023-05-02T15:14:16.478Z,19.54
2023-05-02T15:15:19.769Z,19.56
2023-05-02T15:16:22.581Z,19.56
2023-05-02T15:17:26.132Z,19.57
2023-05-02T15:18:31.574Z,19.55
2023-05-02T15:19:39.802Z,19.55
2023-05-02T15:20:45.326Z,19.54
2023-05-02T15:21:53.072Z,19.55
2023-05-02T15:22:58.178Z,19.54
2023-05-02T15:24:02.016Z,19.56
2023-05-02T15:25:09.718Z,19.55
2023-05-02T15:26:15.130Z,19.55
2023-05-02T15:27:20.747Z,19.52
2023-05-02T15:28:25.817Z,19.52
2023-05-02T15:29:31.665Z,19.51
2023-05-02T15:30:36.281Z,19.48
2023-05-02T15:31:41.839Z,19.48
2023-05-02T15:32:48.364Z,19.46
2023-05-02T15:33:56.698Z,19.46
2023-05-02T15:34:59.247Z,19.41
2023-05-02T15:36:03.712Z,19.40
2023-05-02T15:37:10.742Z,19.38
2023-05-02T15:38:18.990Z,19.38
2023-05-02T15:39:25.263Z,19.38
2023-05-02T15:40:33.715Z,19.39
2023-05-02T15:41:38.361Z,19.38
2023-05-02T15:42:45.285Z,19.38
2023-05-02T15:43:48.614Z,19.38
2023-05-02T15:44:53.283Z,19.36
2023-05-02T15:45:58.659Z,19.36
2023-05-02T15:47:01.781Z,19.33
2023-05-02T15:48:07.264Z,19.31
2023-05-02T15:49:12.860Z,19.29
2023-05-02T15:50:21.880Z,19.26
2023-05-02T15:51:27.996Z,19.26
2023-05-02T15:52:31.492Z,19.22
2023-05-02T15:53:36.260Z,19.18
2023-05-02T15:54:41.450Z,19.16
2023-05-02T15:55:53.245Z,19.13
2023-05-02T15:57:00.977Z,19.13
2023-05-02T15:58:05.685Z,19.11
2023-05-02T15:59:11.308Z,19.10
2023-05-02T16:00:18.181Z,19.08
2023-05-02T16:01:22.156Z,19.06
2023-05-02T16:02:24.958Z,19.04
2023-05-02T16:03:30.171Z,19.00
2023-05-02T16:04:36.542Z,18.98
2023-05-02T16:05:41.149Z,18.95
2023-05-02T16:06:45.173Z,18.92
2023-05-02T16:07:49.096Z,18.90
2023-05-02T16:08:52.159Z,18.87
2023-05-02T16:10:01.438Z,18.85
2023-05-02T16:11:04.939Z,18.82
2023-05-02T16:12:07.901Z,18.77
2023-05-02T16:13:12.389Z,18.74
2023-05-02T16:14:16.654Z,18.69
2023-05-02T16:15:26.146Z,18.67
2023-05-02T16:16:28.593Z,18.64
2023-05-02T16:17:33.569Z,18.62
2023-05-02T16:18:36.677Z,18.58
2023-05-02T16:19:39.852Z,18.56
2023-05-02T16:20:46.294Z,18.53
2023-05-02T16:21:52.783Z,18.52
2023-05-02T16:22:55.800Z,18.48
2023-05-02T16:23:59.122Z,18.46
2023-05-02T16:25:04.559Z,18.44
2023-05-02T16:26:10.846Z,18.41
2023-05-02T16:27:14.142Z,18.39
2023-05-02T16:28:18.911Z,18.35
2023-05-02T16:29:22.604Z,18.34
2023-05-02T16:30:27.285Z,18.34
2023-05-02T16:31:34.023Z,18.33
2023-05-02T16:32:36.921Z,18.32
2023-05-02T16:33:41.631Z,18.31
2023-05-02T16:34:46.845Z,18.28
2023-05-02T16:35:52.131Z,18.25
2023-05-02T16:36:59.923Z,18.21
2023-05-02T16:38:03.434Z,18.20
2023-05-02T16:39:06.936Z,18.18
2023-05-02T16:40:13.758Z,18.16
2023-05-02T16:41:21.230Z,18.15
2023-05-02T16:42:28.292Z,18.13
2023-05-02T16:43:30.984Z,18.10
2023-05-02T16:44:36.010Z,18.06
2023-05-02T16:45:39.692Z,18.03
2023-05-02T16:46:45.640Z,18.00
2023-05-02T16:47:51.774Z,17.96
2023-05-02T16:48:56.535Z,17.93
2023-05-02T16:50:01.884Z,17.88
2023-05-02T16:51:08.299Z,17.86
2023-05-02T16:52:12.707Z,17.83
2023-05-02T16:53:17.986Z,17.80
2023-05-02T16:54:22.792Z,17.75
2023-05-02T16:55:28.544Z,17.74
2023-05-02T16:56:33.540Z,17.74
2023-05-02T16:57:39.636Z,17.72
2023-05-02T16:58:43.850Z,17.68
2023-05-02T16:59:50.102Z,17.62
2023-05-02T17:00:54.401Z,17.61
2023-05-02T17:02:04.484Z,17.57
2023-05-02T17:03:08.757Z,17.56
2023-05-02T17:04:11.710Z,17.52
2023-05-02T17:05:15.835Z,17.51
2023-05-02T17:06:20.358Z,17.48
2023-05-02T17:07:26.886Z,17.43
2023-05-02T17:08:33.622Z,17.43
2023-05-02T17:09:44.238Z,17.39
2023-05-02T17:10:50.660Z,17.37
2023-05-02T17:11:56.058Z,17.34
2023-05-02T17:13:03.046Z,17.31
2023-05-02T17:14:11.890Z,17.28
2023-05-02T17:15:17.126Z,17.23
2023-05-02T17:16:20.510Z,17.19
2023-05-02T17:17:28.990Z,17.14
2023-05-02T17:18:32.602Z,17.14
2023-05-02T17:19:43.082Z,17.10
2023-05-02T17:20:53.251Z,17.06
2023-05-02T17:22:03.369Z,17.06
2023-05-02T17:23:05.726Z,17.02
2023-05-02T17:24:10.694Z,16.97
2023-05-02T17:25:16.995Z,16.95
2023-05-02T17:26:23.575Z,16.91
2023-05-02T17:27:28.461Z,16.87
2023-05-02T17:28:33.611Z,16.84
2023-05-02T17:29:48.075Z,16.78
2023-05-02T17:31:01.589Z,16.75
2023-05-02T17:32:06.408Z,16.70
2023-05-02T17:33:09.686Z,16.64
2023-05-02T17:34:13.925Z,16.61
2023-05-02T17:35:18.273Z,16.58
2023-05-02T17:36:23.126Z,16.54
2023-05-02T17:37:27.742Z,16.53
2023-05-02T17:38:33.072Z,16.51
2023-05-02T17:39:50.700Z,16.49
2023-05-02T17:40:56.847Z,16.45
2023-05-02T17:42:10.000Z,16.42
2023-05-02T17:43:12.221Z,16.36
2023-05-02T17:44:16.250Z,16.33
2023-05-02T17:45:27.076Z,16.32
2023-05-02T17:46:30.427Z,16.27
2023-05-02T17:47:36.711Z,16.21
2023-05-02T17:48:46.193Z,16.20
2023-05-02T17:51:14.945Z,16.14
2023-05-02T17:52:21.827Z,16.08
2023-05-02T17:53:31.914Z,16.04
2023-05-02T17:54:38.439Z,15.98
2023-05-02T17:55:41.101Z,15.94
2023-05-02T17:56:49.264Z,15.92
2023-05-02T17:58:01.638Z,15.85
2023-05-02T17:59:04.477Z,15.83
2023-05-02T18:01:34.963Z,15.77
2023-05-02T18:02:38.591Z,15.74
2023-05-02T18:03:45.446Z,15.71
2023-05-02T18:04:51.416Z,15.67
2023-05-02T18:05:58.048Z,15.65
2023-05-02T18:07:06.123Z,15.66
2023-05-02T18:08:14.678Z,15.64
2023-05-02T18:09:21.329Z,15.64
2023-05-02T18:10:28.931Z,15.60
2023-05-02T18:11:38.944Z,15.58
2023-05-02T18:12:45.949Z,15.55
2023-05-02T18:13:51.395Z,15.54
2023-05-02T18:14:56.195Z,15.52
2023-05-02T18:16:02.707Z,15.51
2023-05-02T18:17:07.659Z,15.49
2023-05-02T18:18:15.020Z,15.49
2023-05-02T18:19:20.931Z,15.42
2023-05-02T18:20:25.738Z,15.42
2023-05-02T18:21:31.194Z,15.39
2023-05-02T18:22:33.659Z,15.35
2023-05-02T18:23:36.183Z,15.31
2023-05-02T18:24:38.625Z,15.28
2023-05-02T18:25:40.802Z,15.26
2023-05-02T18:26:43.787Z,15.20
2023-05-02T18:27:46.170Z,15.22
2023-05-02T18:28:48.361Z,15.19
2023-05-02T18:29:51.179Z,15.14
2023-05-02T18:30:53.632Z,15.12
2023-05-02T18:31:55.990Z,15.10
2023-05-02T18:32:58.344Z,15.08
2023-05-02T18:34:00.771Z,15.07
2023-05-02T18:35:05.274Z,15.04
2023-05-02T18:36:08.733Z,14.98
2023-05-02T18:37:11.232Z,14.98
2023-05-02T18:38:13.530Z,14.95
2023-05-02T18:39:16.308Z,14.95
2023-05-02T18:40:19.133Z,14.94
2023-05-02T18:41:22.245Z,14.93
2023-05-02T18:42:25.088Z,14.91
2023-05-02T18:43:29.352Z,14.88
2023-05-02T18:44:32.938Z,14.83
2023-05-02T18:45:35.324Z,14.81
2023-05-02T18:46:38.693Z,14.80
2023-05-02T18:47:41.403Z,14.74
2023-05-02T18:48:45.514Z,14.71
2023-05-02T18:49:47.964Z,14.66
2023-05-02T18:50:52.128Z,14.66
2023-05-02T18:51:54.564Z,14.66
2023-05-02T18:52:57.316Z,14.63
2023-05-02T18:53:59.550Z,14.64
2023-05-02T18:55:02.639Z,14.60
2023-05-02T18:56:14.633Z,14.59
2023-05-02T18:57:17.969Z,14.56
2023-05-02T18:58:21.107Z,14.51
2023-05-02T18:59:24.578Z,14.50
2023-05-02T19:00:29.994Z,14.50
2023-05-02T19:01:32.437Z,14.46
2023-05-02T19:02:34.828Z,14.42
2023-05-02T19:03:37.019Z,14.38
2023-05-02T19:04:39.369Z,14.38
2023-05-02T19:05:42.801Z,14.35
2023-05-02T19:06:45.641Z,14.32
2023-05-02T19:07:48.518Z,14.31
2023-05-02T19:08:51.386Z,14.27
2023-05-02T19:09:53.886Z,14.25
2023-05-02T19:10:56.712Z,14.21
2023-05-02T19:11:59.091Z,14.19
2023-05-02T19:13:01.905Z,14.15
2023-05-02T19:14:05.417Z,14.12
2023-05-02T19:15:08.193Z,14.10
2023-05-02T19:16:12.069Z,14.11
2023-05-02T19:17:14.469Z,14.10
2023-05-02T19:18:17.671Z,14.04
2023-05-02T19:19:20.565Z,14.02
2023-05-02T19:20:23.579Z,13.99
2023-05-02T19:21:26.016Z,13.95
2023-05-02T19:22:29.075Z,13.92
2023-05-02T19:23:32.465Z,13.88
2023-05-02T19:24:38.420Z,13.89
2023-05-02T19:25:41.658Z,13.89
2023-05-02T19:26:44.584Z,13.84
2023-05-02T19:27:47.553Z,13.82
2023-05-02T19:28:49.954Z,13.80
2023-05-02T19:29:53.986Z,13.76
2023-05-02T19:30:58.139Z,13.77
2023-05-02T19:32:00.556Z,13.73
2023-05-02T19:33:04.029Z,13.71
2023-05-02T19:34:06.731Z,13.69
2023-05-02T19:36:19.674Z,13.74
2023-05-02T19:37:22.823Z,13.56
2023-05-02T19:38:26.572Z,13.54
2023-05-02T19:39:30.036Z,13.54
2023-05-02T19:40:33.481Z,13.50
2023-05-02T19:41:36.351Z,13.51
2023-05-02T19:42:39.651Z,13.51
2023-05-02T19:43:42.301Z,13.49
2023-05-02T19:44:45.218Z,13.50
2023-05-02T19:45:48.023Z,13.45
2023-05-02T19:46:50.616Z,13.43
2023-05-02T19:47:53.711Z,13.38
2023-05-02T19:48:56.226Z,13.34
2023-05-02T19:50:00.558Z,13.32
2023-05-02T19:51:06.295Z,13.29
2023-05-02T19:52:09.080Z,13.27
2023-05-02T19:53:12.503Z,13.28
2023-05-02T19:54:15.253Z,13.22
2023-05-02T19:55:18.086Z,13.20
2023-05-02T19:56:20.905Z,13.20
2023-05-02T19:57:23.219Z,13.18
2023-05-02T19:58:26.457Z,13.15
2023-05-02T19:59:28.919Z,13.13
2023-05-02T20:00:31.877Z,13.09
2023-05-02T20:01:35.129Z,13.08
2023-05-02T20:02:38.111Z,13.07
2023-05-02T20:03:40.664Z,13.04
2023-05-02T20:04:43.167Z,13.04
2023-05-02T20:05:48.644Z,13.03
2023-05-02T20:06:51.884Z,13.00
2023-05-02T20:07:54.238Z,12.99
2023-05-02T20:08:56.592Z,12.95
2023-05-02T20:09:59.703Z,12.95
2023-05-02T20:11:02.328Z,12.92
2023-05-02T20:12:06.153Z,12.93
2023-05-02T20:13:10.698Z,12.92
2023-05-02T20:14:13.172Z,12.89
2023-05-02T20:15:15.548Z,12.86
2023-05-02T20:16:18.835Z,12.85
2023-05-02T20:17:21.664Z,12.81
2023-05-02T20:18:24.527Z,12.78
2023-05-02T20:19:27.211Z,12.75
2023-05-02T20:20:30.559Z,12.71
2023-05-02T20:21:32.925Z,12.70
2023-05-02T20:22:35.285Z,12.69
2023-05-02T20:23:37.604Z,12.68
2023-05-02T20:24:39.910Z,12.66
2023-05-02T20:25:44.304Z,12.64
2023-05-02T20:26:46.887Z,12.65
2023-05-02T20:29:00.761Z,12.74
2023-05-02T20:30:04.508Z,12.57
2023-05-02T20:31:08.241Z,12.57
2023-05-02T20:32:11.119Z,12.55
2023-05-02T20:33:16.248Z,12.52
2023-05-02T20:34:18.626Z,12.52
2023-05-02T20:35:21.551Z,12.49
2023-05-02T20:36:23.950Z,12.48
2023-05-02T20:37:27.523Z,12.47
2023-05-02T20:38:29.796Z,12.44
2023-05-02T20:39:33.089Z,12.43
2023-05-02T20:40:39.036Z,12.42
2023-05-02T20:41:41.192Z,12.42
2023-05-02T20:42:44.127Z,12.41
2023-05-02T20:43:47.324Z,12.40
2023-05-02T20:44:57.668Z,12.37
2023-05-02T20:46:03.661Z,12.36
2023-05-02T20:47:05.857Z,12.32
2023-05-02T20:48:08.147Z,12.32
2023-05-02T20:49:11.041Z,12.31